createdAt,value
2019-01-21T00:00:06.283Z,-4.19
2019-01-21T00:01:06.271Z,-4.25
2019-01-21T00:02:06.299Z,-4.25
2019-01-21T00:05:06.336Z,-4.31
2019-01-21T00:05:10.822Z,-4.31
2019-01-21T00:07:06.278Z,-4.38
2019-01-21T00:08:06.278Z,-4.44
2019-01-21T00:09:06.296Z,-4.44
2019-01-21T00:10:06.368Z,-4.44
2019-01-21T00:11:06.281Z,-4.50
2019-01-21T00:12:06.273Z,-4.50
2019-01-21T00:13:06.274Z,-4.50
2019-01-21T00:14:06.264Z,-4.56
2019-01-21T00:15:06.297Z,-4.56
2019-01-21T00:16:06.290Z,-4.62
2019-01-21T00:17:06.312Z,-4.62
2019-01-21T00:18:06.340Z,-4.62
2019-01-21T00:19:06.291Z,-4.62
2019-01-21T00:21:06.266Z,-4.69
2019-01-21T00:21:10.826Z,-4.69
2019-01-21T00:22:06.306Z,-4.69
2019-01-21T00:23:06.311Z,-4.75
2019-01-21T00:24:06.310Z,-4.75
2019-01-21T00:25:06.291Z,-4.81
2019-01-21T00:26:06.392Z,-4.81
2019-01-21T00:27:06.278Z,-4.81
2019-01-21T00:28:06.306Z,-4.88
2019-01-21T00:29:11.047Z,-4.88
2019-01-21T00:30:06.302Z,-4.88
2019-01-21T00:31:07.025Z,-4.88
2019-01-21T00:32:06.297Z,-4.88
2019-01-21T00:33:06.264Z,-4.94
2019-01-21T00:34:06.293Z,-4.94
2019-01-21T00:35:06.296Z,-5.00
2019-01-21T00:36:06.281Z,-5.00
2019-01-21T00:37:06.296Z,-5.00
2019-01-21T00:38:06.313Z,-5.00
2019-01-21T00:39:06.333Z,-5.06
2019-01-21T00:41:06.307Z,-5.12
2019-01-21T00:42:06.834Z,-5.12
2019-01-21T00:44:06.376Z,-5.12
2019-01-21T00:44:11.318Z,-5.12
2019-01-21T00:45:06.357Z,-5.19
2019-01-21T00:46:06.335Z,-5.19
2019-01-21T00:47:06.315Z,-5.19
2019-01-21T00:48:06.304Z,-5.19
2019-01-21T00:49:06.327Z,-5.25
2019-01-21T00:50:06.315Z,-5.25
2019-01-21T00:51:06.315Z,-5.25
2019-01-21T00:52:06.356Z,-5.25
2019-01-21T00:54:06.319Z,-5.31
2019-01-21T00:55:06.313Z,-5.31
2019-01-21T00:56:06.331Z,-5.38
2019-01-21T00:57:06.326Z,-5.38
2019-01-21T00:58:06.396Z,-5.38
2019-01-21T00:59:06.321Z,-5.38
2019-01-21T01:00:06.305Z,-5.38
2019-01-21T01:01:06.331Z,-5.44
2019-01-21T01:02:06.358Z,-5.50
2019-01-21T01:03:06.295Z,-5.50
2019-01-21T01:04:06.303Z,-5.50
2019-01-21T01:07:06.401Z,-5.50
2019-01-21T01:08:06.395Z,-5.50
2019-01-21T01:10:06.308Z,-5.50
2019-01-21T01:11:06.324Z,-5.50
2019-01-21T01:12:06.347Z,-5.50
2019-01-21T01:13:06.319Z,-5.50
2019-01-21T01:14:06.412Z,-5.50
2019-01-21T01:15:06.339Z,-5.50
2019-01-21T01:16:06.337Z,-5.50
2019-01-21T01:17:06.302Z,-5.50
2019-01-21T01:18:06.329Z,-5.44
2019-01-21T01:20:06.387Z,-5.44
2019-01-21T01:21:06.393Z,-5.44
2019-01-21T01:22:06.330Z,-5.44
2019-01-21T01:23:06.392Z,-5.44
2019-01-21T01:24:06.323Z,-5.44
2019-01-21T01:25:06.315Z,-5.44
2019-01-21T01:26:06.365Z,-5.44
2019-01-21T01:27:06.371Z,-5.44
2019-01-21T01:28:06.332Z,-5.44
2019-01-21T01:29:06.376Z,-5.38
2019-01-21T01:30:06.444Z,-5.38
2019-01-21T01:31:06.346Z,-5.38
2019-01-21T01:32:06.347Z,-5.38
2019-01-21T01:34:06.377Z,-5.31
2019-01-21T01:34:10.957Z,-5.38
2019-01-21T01:35:06.352Z,-5.31
2019-01-21T01:36:06.350Z,-5.31
2019-01-21T01:37:06.365Z,-5.31
2019-01-21T01:38:06.346Z,-5.31
2019-01-21T01:39:06.320Z,-5.31
2019-01-21T01:41:06.498Z,-5.25
2019-01-21T01:42:06.352Z,-5.25
2019-01-21T01:43:06.353Z,-5.19
2019-01-21T01:44:06.353Z,-5.19
2019-01-21T01:45:06.345Z,-5.25
2019-01-21T01:46:06.425Z,-5.25
2019-01-21T01:47:06.330Z,-5.25
2019-01-21T01:48:06.360Z,-5.25
2019-01-21T01:49:06.380Z,-5.25
2019-01-21T01:50:06.356Z,-5.25
2019-01-21T01:51:06.341Z,-5.25
2019-01-21T01:52:06.349Z,-5.19
2019-01-21T01:54:06.450Z,-5.19
2019-01-21T01:54:10.975Z,-5.19
2019-01-21T01:55:06.376Z,-5.19
2019-01-21T01:56:06.392Z,-5.19
2019-01-21T01:58:06.875Z,-5.19
2019-01-21T01:59:06.383Z,-5.19
2019-01-21T02:00:06.366Z,-5.19
2019-01-21T02:01:06.422Z,-5.19
2019-01-21T02:02:06.422Z,-5.19
2019-01-21T02:03:06.407Z,-5.25
2019-01-21T02:04:06.412Z,-5.25
2019-01-21T02:05:06.393Z,-5.25
2019-01-21T02:06:06.384Z,-5.25
2019-01-21T02:07:06.380Z,-5.25
2019-01-21T02:08:06.413Z,-5.25
2019-01-21T02:09:06.413Z,-5.31
2019-01-21T02:10:06.398Z,-5.31
2019-01-21T02:11:06.395Z,-5.31
2019-01-21T02:12:06.396Z,-5.31
2019-01-21T02:13:06.405Z,-5.31
2019-01-21T02:14:06.450Z,-5.31
2019-01-21T02:17:11.484Z,-5.38
2019-01-21T02:18:06.375Z,-5.38
2019-01-21T02:19:06.489Z,-5.38
2019-01-21T02:20:06.401Z,-5.38
2019-01-21T02:21:06.412Z,-5.38
2019-01-21T02:22:06.381Z,-5.38
2019-01-21T02:23:06.389Z,-5.38
2019-01-21T02:24:06.393Z,-5.44
2019-01-21T02:25:06.375Z,-5.44
2019-01-21T02:26:06.389Z,-5.44
2019-01-21T02:27:06.375Z,-5.44
2019-01-21T02:28:06.410Z,-5.44
2019-01-21T02:29:06.430Z,-5.44
2019-01-21T02:30:06.387Z,-5.44
2019-01-21T02:31:06.408Z,-5.44
2019-01-21T02:32:06.420Z,-5.44
2019-01-21T02:33:06.466Z,-5.44
2019-01-21T02:34:06.412Z,-5.44
2019-01-21T02:35:06.390Z,-5.50
2019-01-21T02:37:06.373Z,-5.50
2019-01-21T02:37:11.475Z,-5.50
2019-01-21T02:38:06.388Z,-5.50
2019-01-21T02:40:11.292Z,-5.50
2019-01-21T02:41:06.518Z,-5.50
2019-01-21T02:42:06.418Z,-5.56
2019-01-21T02:43:06.412Z,-5.56
2019-01-21T02:44:06.395Z,-5.56
2019-01-21T02:45:06.431Z,-5.62
2019-01-21T02:46:06.422Z,-5.62
2019-01-21T02:47:06.422Z,-5.62
2019-01-21T02:48:06.464Z,-5.62
2019-01-21T02:51:06.438Z,-5.62
2019-01-21T02:51:11.123Z,-5.62
2019-01-21T02:52:06.415Z,-5.62
2019-01-21T02:53:06.418Z,-5.69
2019-01-21T02:54:06.427Z,-5.69
2019-01-21T02:55:06.386Z,-5.75
2019-01-21T02:56:06.442Z,-5.81
2019-01-21T02:57:06.417Z,-5.81
2019-01-21T02:58:06.397Z,-5.81
2019-01-21T02:59:06.405Z,-5.81
2019-01-21T03:00:06.410Z,-5.81
2019-01-21T03:01:06.436Z,-5.81
2019-01-21T03:02:06.419Z,-5.81
2019-01-21T03:03:06.427Z,-5.81
2019-01-21T03:04:06.583Z,-5.88
2019-01-21T03:05:06.430Z,-5.88
2019-01-21T03:07:06.437Z,-5.94
2019-01-21T03:07:11.143Z,-5.88
2019-01-21T03:08:06.398Z,-5.88
2019-01-21T03:09:06.457Z,-5.94
2019-01-21T03:10:06.441Z,-5.94
2019-01-21T03:11:06.420Z,-5.94
2019-01-21T03:12:06.447Z,-5.94
2019-01-21T03:13:06.426Z,-5.94
2019-01-21T03:14:06.428Z,-6.00
2019-01-21T03:15:06.442Z,-6.00
2019-01-21T03:16:06.445Z,-6.00
2019-01-21T03:17:06.467Z,-6.00
2019-01-21T03:18:07.991Z,-6.00
2019-01-21T03:19:06.433Z,-6.00
2019-01-21T03:20:06.434Z,-6.00
2019-01-21T03:21:06.436Z,-6.00
2019-01-21T03:22:06.541Z,-6.00
2019-01-21T03:24:06.427Z,-6.12
2019-01-21T03:25:06.457Z,-6.12
2019-01-21T03:26:06.450Z,-6.12
2019-01-21T03:28:06.479Z,-6.12
2019-01-21T03:29:06.472Z,-6.19
2019-01-21T03:30:06.465Z,-6.19
2019-01-21T03:31:06.430Z,-6.19
2019-01-21T03:32:06.526Z,-6.19
2019-01-21T03:33:06.467Z,-6.25
2019-01-21T03:34:06.451Z,-6.25
2019-01-21T03:35:06.521Z,-6.25
2019-01-21T03:36:06.493Z,-6.25
2019-01-21T03:37:06.413Z,-6.31
2019-01-21T03:38:06.458Z,-6.31
2019-01-21T03:39:06.460Z,-6.31
2019-01-21T03:40:06.518Z,-6.31
2019-01-21T03:41:06.465Z,-6.31
2019-01-21T03:42:06.459Z,-6.31
2019-01-21T03:43:06.459Z,-6.31
2019-01-21T03:44:06.473Z,-6.31
2019-01-21T03:45:06.486Z,-6.38
2019-01-21T03:46:06.517Z,-6.38
2019-01-21T03:47:06.458Z,-6.38
2019-01-21T03:48:06.460Z,-6.38
2019-01-21T03:49:06.495Z,-6.38
2019-01-21T03:50:06.491Z,-6.38
2019-01-21T03:51:06.479Z,-6.38
2019-01-21T03:53:06.489Z,-6.44
2019-01-21T03:54:06.455Z,-6.38
2019-01-21T03:55:06.507Z,-6.38
2019-01-21T03:56:06.548Z,-6.44
2019-01-21T03:58:06.479Z,-6.44
2019-01-21T03:58:11.013Z,-6.44
2019-01-21T03:59:06.510Z,-6.44
2019-01-21T04:00:06.462Z,-6.44
2019-01-21T04:01:06.479Z,-6.44
2019-01-21T04:02:06.698Z,-6.44
2019-01-21T04:03:06.456Z,-6.50
2019-01-21T04:05:06.538Z,-6.50
2019-01-21T04:06:06.529Z,-6.50
2019-01-21T04:07:06.480Z,-6.50
2019-01-21T04:08:06.460Z,-6.50
2019-01-21T04:09:06.468Z,-6.50
2019-01-21T04:10:06.447Z,-6.50
2019-01-21T04:11:06.494Z,-6.50
2019-01-21T04:12:06.477Z,-6.50
2019-01-21T04:13:06.480Z,-6.50
2019-01-21T04:14:06.475Z,-6.50
2019-01-21T04:15:06.490Z,-6.50
2019-01-21T04:16:06.454Z,-6.50
2019-01-21T04:17:06.479Z,-6.56
2019-01-21T04:18:06.447Z,-6.56
2019-01-21T04:19:06.496Z,-6.50
2019-01-21T04:20:06.474Z,-6.50
2019-01-21T04:21:06.490Z,-6.50
2019-01-21T04:22:06.453Z,-6.50
2019-01-21T04:24:06.455Z,-6.50
2019-01-21T04:24:11.304Z,-6.50
2019-01-21T04:25:06.525Z,-6.50
2019-01-21T04:26:06.532Z,-6.50
2019-01-21T04:27:06.501Z,-6.56
2019-01-21T04:28:06.506Z,-6.56
2019-01-21T04:29:06.502Z,-6.56
2019-01-21T04:31:06.564Z,-6.56
2019-01-21T04:32:06.469Z,-6.56
2019-01-21T04:33:06.535Z,-6.56
2019-01-21T04:34:06.518Z,-6.56
2019-01-21T04:35:06.490Z,-6.56
2019-01-21T04:36:06.538Z,-6.56
2019-01-21T04:37:06.545Z,-6.56
2019-01-21T04:39:06.541Z,-6.56
2019-01-21T04:40:06.521Z,-6.56
2019-01-21T04:41:06.515Z,-6.50
2019-01-21T04:42:06.517Z,-6.56
2019-01-21T04:43:06.558Z,-6.56
2019-01-21T04:44:06.498Z,-6.56
2019-01-21T04:45:06.555Z,-6.56
2019-01-21T04:46:06.531Z,-6.56
2019-01-21T04:47:06.563Z,-6.56
2019-01-21T04:48:06.562Z,-6.56
2019-01-21T04:49:06.560Z,-6.62
2019-01-21T04:50:06.546Z,-6.62
2019-01-21T04:51:06.548Z,-6.62
2019-01-21T04:52:06.551Z,-6.56
2019-01-21T04:53:06.556Z,-6.56
2019-01-21T04:56:06.559Z,-6.62
2019-01-21T04:57:06.555Z,-6.62
2019-01-21T04:58:06.566Z,-6.62
2019-01-21T04:59:06.562Z,-6.69
2019-01-21T05:00:06.546Z,-6.62
2019-01-21T05:01:06.557Z,-6.62
2019-01-21T05:02:06.550Z,-6.62
2019-01-21T05:03:06.546Z,-6.62
2019-01-21T05:04:06.535Z,-6.62
2019-01-21T05:05:06.579Z,-6.62
2019-01-21T05:06:06.579Z,-6.69
2019-01-21T05:07:06.640Z,-6.62
2019-01-21T05:08:06.514Z,-6.69
2019-01-21T05:09:06.565Z,-6.69
2019-01-21T05:10:06.558Z,-6.69
2019-01-21T05:11:06.632Z,-6.69
2019-01-21T05:12:06.613Z,-6.69
2019-01-21T05:13:06.568Z,-6.69
2019-01-21T05:14:06.559Z,-6.69
2019-01-21T05:15:06.577Z,-6.69
2019-01-21T05:16:06.596Z,-6.69
2019-01-21T05:18:06.577Z,-6.69
2019-01-21T05:19:06.555Z,-6.69
2019-01-21T05:20:06.577Z,-6.69
2019-01-21T05:21:06.566Z,-6.69
2019-01-21T05:22:06.565Z,-6.69
2019-01-21T05:23:06.548Z,-6.62
2019-01-21T05:24:06.568Z,-6.69
2019-01-21T05:25:06.623Z,-6.62
2019-01-21T05:26:06.575Z,-6.62
2019-01-21T05:27:06.544Z,-6.62
2019-01-21T05:28:06.614Z,-6.62
2019-01-21T05:29:06.577Z,-6.62
2019-01-21T05:30:06.600Z,-6.62
2019-01-21T05:31:06.576Z,-6.62
2019-01-21T05:32:06.544Z,-6.62
2019-01-21T05:34:06.587Z,-6.69
2019-01-21T05:35:06.566Z,-6.69
2019-01-21T05:36:06.586Z,-6.69
2019-01-21T05:37:06.578Z,-6.69
2019-01-21T05:38:06.608Z,-6.69
2019-01-21T05:39:06.611Z,-6.75
2019-01-21T05:41:06.574Z,-6.75
2019-01-21T05:42:06.563Z,-6.75
2019-01-21T05:44:06.571Z,-6.75
2019-01-21T05:44:11.299Z,-6.69
2019-01-21T05:45:06.590Z,-6.69
2019-01-21T05:48:06.572Z,-6.75
2019-01-21T05:49:06.583Z,-6.75
2019-01-21T05:50:06.617Z,-6.75
2019-01-21T05:51:06.586Z,-6.75
2019-01-21T05:52:06.610Z,-6.75
2019-01-21T05:53:06.587Z,-6.75
2019-01-21T05:54:06.596Z,-6.81
2019-01-21T05:55:06.582Z,-6.81
2019-01-21T05:56:06.574Z,-6.81
2019-01-21T05:57:06.570Z,-6.81
2019-01-21T05:58:06.604Z,-6.81
2019-01-21T05:59:06.578Z,-6.81
2019-01-21T06:00:06.588Z,-6.81
2019-01-21T06:01:06.564Z,-6.81
2019-01-21T06:02:06.633Z,-6.81
2019-01-21T06:04:06.609Z,-6.81
2019-01-21T06:04:11.308Z,-6.81
2019-01-21T06:05:06.598Z,-6.81
2019-01-21T06:06:06.615Z,-6.81
2019-01-21T06:07:06.603Z,-6.81
2019-01-21T06:08:06.580Z,-6.88
2019-01-21T06:09:06.611Z,-6.88
2019-01-21T06:10:06.621Z,-6.88
2019-01-21T06:11:06.609Z,-6.88
2019-01-21T06:12:06.618Z,-6.88
2019-01-21T06:13:06.610Z,-6.94
2019-01-21T06:14:06.589Z,-6.94
2019-01-21T06:15:06.607Z,-6.94
2019-01-21T06:16:06.633Z,-6.94
2019-01-21T06:17:06.634Z,-6.94
2019-01-21T06:18:06.588Z,-6.94
2019-01-21T06:19:06.590Z,-6.94
2019-01-21T06:20:06.623Z,-6.94
2019-01-21T06:21:06.624Z,-6.94
2019-01-21T06:22:06.631Z,-6.94
2019-01-21T06:23:06.608Z,-6.94
2019-01-21T06:24:06.692Z,-6.94
2019-01-21T06:25:06.610Z,-6.94
2019-01-21T06:26:06.637Z,-7.00
2019-01-21T06:27:06.625Z,-7.00
2019-01-21T06:29:06.615Z,-7.00
2019-01-21T06:30:06.638Z,-7.06
2019-01-21T06:31:06.606Z,-7.06
2019-01-21T06:32:06.610Z,-7.06
2019-01-21T06:33:06.658Z,-7.06
2019-01-21T06:34:06.639Z,-7.06
2019-01-21T06:35:06.488Z,-7.12
2019-01-21T06:36:06.627Z,-7.06
2019-01-21T06:37:06.636Z,-7.12
2019-01-21T06:38:06.665Z,-7.12
2019-01-21T06:39:06.636Z,-7.12
2019-01-21T06:40:06.635Z,-7.12
2019-01-21T06:41:06.667Z,-7.12
2019-01-21T06:42:06.642Z,-7.12
2019-01-21T06:43:06.491Z,-7.12
2019-01-21T06:44:06.620Z,-7.12
2019-01-21T06:45:06.675Z,-7.12
2019-01-21T06:46:06.688Z,-7.12
2019-01-21T06:47:06.502Z,-7.12
2019-01-21T06:48:06.736Z,-7.19
2019-01-21T06:49:06.659Z,-7.19
2019-01-21T06:50:06.639Z,-7.19
2019-01-21T06:51:06.644Z,-7.25
2019-01-21T06:53:06.655Z,-7.25
2019-01-21T06:53:11.450Z,-7.25
2019-01-21T06:54:06.652Z,-7.25
2019-01-21T06:55:06.718Z,-7.31
2019-01-21T06:56:06.665Z,-7.31
2019-01-21T06:57:06.679Z,-7.25
2019-01-21T06:58:06.646Z,-7.25
2019-01-21T07:00:06.694Z,-7.31
2019-01-21T07:00:11.307Z,-7.25
2019-01-21T07:01:06.655Z,-7.31
2019-01-21T07:02:06.692Z,-7.31
2019-01-21T07:03:06.536Z,-7.38
2019-01-21T07:05:06.704Z,-7.38
2019-01-21T07:06:06.828Z,-7.38
2019-01-21T07:07:06.783Z,-7.38
2019-01-21T07:08:06.788Z,-7.38
2019-01-21T07:09:06.781Z,-7.38
2019-01-21T07:10:06.597Z,-7.38
2019-01-21T07:11:06.819Z,-7.38
2019-01-21T07:12:06.708Z,-7.44
2019-01-21T07:13:06.824Z,-7.44
2019-01-21T07:14:06.997Z,-7.44
2019-01-21T07:15:06.827Z,-7.44
2019-01-21T07:16:06.877Z,-7.38
2019-01-21T07:17:06.779Z,-7.44
2019-01-21T07:18:06.913Z,-7.44
2019-01-21T07:19:10.864Z,-7.44
2019-01-21T07:20:06.910Z,-7.44
2019-01-21T07:21:06.790Z,-7.44
2019-01-21T07:22:06.821Z,-7.44
2019-01-21T07:23:06.829Z,-7.44
2019-01-21T07:24:06.749Z,-7.44
2019-01-21T07:25:06.790Z,-7.44
2019-01-21T07:26:06.894Z,-7.44
2019-01-21T07:27:06.764Z,-7.50
2019-01-21T07:28:06.835Z,-7.50
2019-01-21T07:29:06.819Z,-7.50
2019-01-21T07:30:06.799Z,-7.44
2019-01-21T07:31:06.820Z,-7.44
2019-01-21T07:32:06.776Z,-7.44
2019-01-21T07:33:06.752Z,-7.44
2019-01-21T07:34:06.779Z,-7.44
2019-01-21T07:35:06.895Z,-7.44
2019-01-21T07:36:06.978Z,-7.44
2019-01-21T07:37:06.827Z,-7.44
2019-01-21T07:38:06.766Z,-7.44
2019-01-21T07:39:06.807Z,-7.44
2019-01-21T07:40:06.898Z,-7.44
2019-01-21T07:41:06.725Z,-7.44
2019-01-21T07:42:06.864Z,-7.44
2019-01-21T07:43:06.899Z,-7.44
2019-01-21T07:44:06.810Z,-7.44
2019-01-21T07:45:06.980Z,-7.44
2019-01-21T07:46:06.814Z,-7.44
2019-01-21T07:47:06.810Z,-7.44
2019-01-21T07:48:06.913Z,-7.38
2019-01-21T07:49:06.826Z,-7.38
2019-01-21T07:50:06.813Z,-7.38
2019-01-21T07:51:06.906Z,-7.38
2019-01-21T07:52:06.936Z,-7.38
2019-01-21T07:53:06.805Z,-7.31
2019-01-21T07:54:06.746Z,-7.31
2019-01-21T07:55:06.719Z,-7.31
2019-01-21T07:56:06.761Z,-7.31
2019-01-21T07:57:06.839Z,-7.31
2019-01-21T07:58:06.708Z,-7.31
2019-01-21T07:59:06.737Z,-7.31
2019-01-21T08:01:06.573Z,-7.25
2019-01-21T08:01:11.461Z,-7.25
2019-01-21T08:02:06.595Z,-7.25
2019-01-21T08:03:06.747Z,-7.25
2019-01-21T08:04:06.740Z,-7.25
2019-01-21T08:05:06.736Z,-7.19
2019-01-21T08:06:06.750Z,-7.19
2019-01-21T08:07:06.576Z,-7.19
2019-01-21T08:08:06.720Z,-7.12
2019-01-21T08:09:06.765Z,-7.12
2019-01-21T08:10:06.723Z,-7.06
2019-01-21T08:11:06.737Z,-7.06
2019-01-21T08:12:06.720Z,-7.06
2019-01-21T08:13:06.568Z,-7.06
2019-01-21T08:14:06.747Z,-7.00
2019-01-21T08:15:06.779Z,-7.00
2019-01-21T08:16:06.591Z,-7.00
2019-01-21T08:17:06.754Z,-7.00
2019-01-21T08:18:06.746Z,-6.94
2019-01-21T08:19:06.750Z,-6.94
2019-01-21T08:20:06.716Z,-6.94
2019-01-21T08:21:06.860Z,-6.88
2019-01-21T08:22:06.874Z,-6.88
2019-01-21T08:23:06.879Z,-6.88
2019-01-21T08:24:06.959Z,-6.81
2019-01-21T08:25:06.884Z,-6.81
2019-01-21T08:26:06.892Z,-6.75
2019-01-21T08:27:06.934Z,-6.75
2019-01-21T08:28:06.892Z,-6.75
2019-01-21T08:29:06.848Z,-6.69
2019-01-21T08:30:06.826Z,-6.69
2019-01-21T08:31:06.648Z,-6.69
2019-01-21T08:32:06.953Z,-6.62
2019-01-21T08:33:06.856Z,-6.62
2019-01-21T08:34:06.816Z,-6.56
2019-01-21T08:35:06.632Z,-6.56
2019-01-21T08:36:06.638Z,-6.50
2019-01-21T08:37:06.967Z,-6.50
2019-01-21T08:38:06.884Z,-6.44
2019-01-21T08:39:06.948Z,-6.44
2019-01-21T08:40:06.947Z,-6.38
2019-01-21T08:41:06.951Z,-6.38
2019-01-21T08:42:06.880Z,-6.31
2019-01-21T08:43:06.650Z,-6.25
2019-01-21T08:44:06.842Z,-6.25
2019-01-21T08:45:06.850Z,-6.19
2019-01-21T08:46:06.830Z,-6.19
2019-01-21T08:47:06.920Z,-6.12
2019-01-21T08:48:06.843Z,-6.06
2019-01-21T08:49:06.891Z,-6.06
2019-01-21T08:50:06.885Z,-6.00
2019-01-21T08:51:06.796Z,-6.00
2019-01-21T08:52:06.840Z,-5.94
2019-01-21T08:53:06.811Z,-5.94
2019-01-21T08:54:06.823Z,-5.88
2019-01-21T08:55:06.886Z,-5.81
2019-01-21T08:56:06.831Z,-5.81
2019-01-21T08:57:06.989Z,-5.62
2019-01-21T08:58:07.002Z,-5.56
2019-01-21T08:59:06.832Z,-5.50
2019-01-21T09:00:06.700Z,-5.44
2019-01-21T09:01:06.878Z,-5.44
2019-01-21T09:02:06.902Z,-5.38
2019-01-21T09:03:06.934Z,-5.38
2019-01-21T09:04:06.976Z,-5.31
2019-01-21T09:05:06.869Z,-5.31
2019-01-21T09:06:06.877Z,-5.25
2019-01-21T09:07:06.933Z,-5.25
2019-01-21T09:08:06.885Z,-5.25
2019-01-21T09:09:06.933Z,-5.19
2019-01-21T09:10:06.907Z,-5.12
2019-01-21T09:11:06.846Z,-5.12
2019-01-21T09:12:06.991Z,-5.12
2019-01-21T09:13:06.904Z,-5.06
2019-01-21T09:14:06.959Z,-5.00
2019-01-21T09:15:06.856Z,-5.00
2019-01-21T09:16:06.926Z,-4.94
2019-01-21T09:17:06.863Z,-4.94
2019-01-21T09:18:06.854Z,-4.94
2019-01-21T09:19:06.832Z,-4.88
2019-01-21T09:20:10.585Z,-4.88
2019-01-21T09:21:06.554Z,-4.81
2019-01-21T09:22:06.822Z,-4.75
2019-01-21T09:23:06.673Z,-4.75
2019-01-21T09:24:06.807Z,-4.69
2019-01-21T09:25:06.823Z,-4.69
2019-01-21T09:26:06.787Z,-4.62
2019-01-21T09:27:06.797Z,-4.62
2019-01-21T09:29:06.656Z,-4.56
2019-01-21T09:30:06.813Z,-4.50
2019-01-21T09:31:06.857Z,-4.50
2019-01-21T09:32:06.802Z,-4.44
2019-01-21T09:33:06.576Z,-4.44
2019-01-21T09:34:06.811Z,-4.38
2019-01-21T09:35:06.798Z,-4.31
2019-01-21T09:36:06.798Z,-4.31
2019-01-21T09:37:06.617Z,-4.31
2019-01-21T09:38:06.822Z,-4.25
2019-01-21T09:39:06.776Z,-4.25
2019-01-21T09:40:06.796Z,-4.19
2019-01-21T09:41:06.787Z,-4.12
2019-01-21T09:42:06.820Z,-4.12
2019-01-21T09:43:06.839Z,-4.06
2019-01-21T09:44:06.594Z,-4.06
2019-01-21T09:46:06.659Z,-4.00
2019-01-21T09:47:06.530Z,-3.94
2019-01-21T09:48:06.657Z,-3.94
2019-01-21T09:49:06.796Z,-3.88
2019-01-21T09:50:06.815Z,-3.88
2019-01-21T09:51:06.809Z,-3.81
2019-01-21T09:52:06.806Z,-3.81
2019-01-21T09:53:06.670Z,-3.75
2019-01-21T09:54:06.815Z,-3.75
2019-01-21T09:55:06.821Z,-3.69
2019-01-21T09:57:06.829Z,-3.69
2019-01-21T09:58:06.814Z,-3.62
2019-01-21T09:59:06.842Z,-3.56
2019-01-21T10:00:06.924Z,-3.56
2019-01-21T10:01:07.697Z,-3.50
2019-01-21T10:02:06.798Z,-3.50
2019-01-21T10:03:06.822Z,-3.44
2019-01-21T10:04:06.870Z,-3.44
2019-01-21T10:05:06.826Z,-3.38
2019-01-21T10:06:06.863Z,-3.38
2019-01-21T10:07:07.287Z,-3.31
2019-01-21T10:08:06.807Z,-3.31
2019-01-21T10:09:06.679Z,-3.25
2019-01-21T10:10:06.805Z,-3.25
2019-01-21T10:11:06.865Z,-3.19
2019-01-21T10:12:06.842Z,-3.19
2019-01-21T10:13:06.875Z,-3.19
2019-01-21T10:14:06.823Z,-3.12
2019-01-21T10:15:06.664Z,-3.12
2019-01-21T10:16:06.827Z,-3.06
2019-01-21T10:17:06.831Z,-3.06
2019-01-21T10:18:06.805Z,-3.00
2019-01-21T10:19:06.874Z,-3.00
2019-01-21T10:20:06.820Z,-2.94
2019-01-21T10:21:06.897Z,-2.94
2019-01-21T10:22:06.840Z,-2.88
2019-01-21T10:23:06.875Z,-2.88
2019-01-21T10:24:06.705Z,-2.81
2019-01-21T10:25:06.856Z,-2.81
2019-01-21T10:26:06.833Z,-2.81
2019-01-21T10:27:06.849Z,-2.75
2019-01-21T10:28:06.574Z,-2.75
2019-01-21T10:29:06.916Z,-2.69
2019-01-21T10:30:06.662Z,-2.69
2019-01-21T10:31:06.866Z,-2.62
2019-01-21T10:32:06.848Z,-2.62
2019-01-21T10:33:05.067Z,-2.56
2019-01-21T10:34:06.842Z,-2.56
2019-01-21T10:35:06.861Z,-2.56
2019-01-21T10:36:06.845Z,-2.50
2019-01-21T10:37:06.848Z,-2.50
2019-01-21T10:38:06.844Z,-2.50
2019-01-21T10:39:06.849Z,-2.44
2019-01-21T10:40:08.054Z,-2.44
2019-01-21T10:41:06.896Z,-2.44
2019-01-21T10:42:06.879Z,-2.38
2019-01-21T10:43:06.669Z,-2.38
2019-01-21T10:44:06.854Z,-2.31
2019-01-21T10:45:06.669Z,-2.31
2019-01-21T10:46:06.939Z,-2.31
2019-01-21T10:47:06.843Z,-2.25
2019-01-21T10:48:06.875Z,-2.25
2019-01-21T10:49:06.854Z,-2.19
2019-01-21T10:50:05.040Z,-2.19
2019-01-21T10:51:06.868Z,-2.12
2019-01-21T10:52:06.864Z,-2.12
2019-01-21T10:53:06.871Z,-2.12
2019-01-21T10:54:06.623Z,-2.12
2019-01-21T10:55:06.890Z,-2.06
2019-01-21T10:56:06.849Z,-2.06
2019-01-21T10:57:06.835Z,-2.00
2019-01-21T10:58:06.846Z,-2.00
2019-01-21T10:59:06.871Z,-2.00
2019-01-21T11:00:06.700Z,-1.94
2019-01-21T11:01:06.897Z,-1.94
2019-01-21T11:02:06.854Z,-1.94
2019-01-21T11:03:06.886Z,-1.88
2019-01-21T11:04:06.899Z,-1.88
2019-01-21T11:05:06.734Z,-1.81
2019-01-21T11:06:06.883Z,-1.81
2019-01-21T11:07:06.897Z,-1.81
2019-01-21T11:08:07.945Z,-1.75
2019-01-21T11:09:06.878Z,-1.75
2019-01-21T11:10:06.905Z,-1.75
2019-01-21T11:11:06.859Z,-1.75
2019-01-21T11:12:06.783Z,-1.69
2019-01-21T11:13:07.037Z,-1.69
2019-01-21T11:14:07.077Z,-1.69
2019-01-21T11:15:06.937Z,-1.62
2019-01-21T11:16:06.985Z,-1.62
2019-01-21T11:17:07.069Z,-1.62
2019-01-21T11:18:07.003Z,-1.56
2019-01-21T11:19:06.840Z,-1.56
2019-01-21T11:20:06.974Z,-1.56
2019-01-21T11:21:06.937Z,-1.56
2019-01-21T11:22:07.003Z,-1.56
2019-01-21T11:23:06.791Z,-1.50
2019-01-21T11:24:06.813Z,-1.50
2019-01-21T11:25:06.748Z,-1.44
2019-01-21T11:26:06.730Z,-1.44
2019-01-21T11:27:06.987Z,-1.44
2019-01-21T11:28:06.822Z,-1.44
2019-01-21T11:29:06.988Z,-1.38
2019-01-21T11:30:06.997Z,-1.38
2019-01-21T11:31:07.049Z,-1.38
2019-01-21T11:32:07.031Z,-1.38
2019-01-21T11:33:07.042Z,-1.38
2019-01-21T11:34:06.997Z,-1.38
2019-01-21T11:35:06.801Z,-1.31
2019-01-21T11:36:07.000Z,-1.31
2019-01-21T11:37:06.931Z,-1.31
2019-01-21T11:38:06.977Z,-1.31
2019-01-21T11:39:07.015Z,-1.25
2019-01-21T11:40:07.723Z,-1.25
2019-01-21T11:41:06.745Z,-1.25
2019-01-21T11:42:06.930Z,-1.25
2019-01-21T11:43:06.967Z,-1.25
2019-01-21T11:44:06.659Z,-1.19
2019-01-21T11:45:06.909Z,-1.19
2019-01-21T11:46:06.704Z,-1.19
2019-01-21T11:47:05.050Z,-1.19
2019-01-21T11:48:06.640Z,-1.19
2019-01-21T11:49:06.906Z,-1.19
2019-01-21T11:50:10.420Z,-1.19
2019-01-21T11:51:06.755Z,-1.12
2019-01-21T11:52:06.667Z,-1.12
2019-01-21T11:53:06.900Z,-1.12
2019-01-21T11:54:06.931Z,-1.12
2019-01-21T11:55:06.912Z,-1.06
2019-01-21T11:56:06.924Z,-1.06
2019-01-21T11:57:06.908Z,-1.06
2019-01-21T11:58:06.934Z,-1.06
2019-01-21T11:59:06.925Z,-1.00
2019-01-21T12:00:06.934Z,-1.00
2019-01-21T12:01:06.934Z,-1.00
2019-01-21T12:02:06.927Z,-1.00
2019-01-21T12:03:06.887Z,-1.00
2019-01-21T12:04:06.913Z,-0.94
2019-01-21T12:05:06.904Z,-0.94
2019-01-21T12:06:06.650Z,-0.94
2019-01-21T12:07:06.706Z,-0.94
2019-01-21T12:08:05.051Z,-0.94
2019-01-21T12:09:06.922Z,-0.94
2019-01-21T12:10:06.925Z,-0.94
2019-01-21T12:11:06.029Z,-0.88
2019-01-21T12:12:06.948Z,-0.88
2019-01-21T12:13:06.923Z,-0.88
2019-01-21T12:14:05.129Z,-0.81
2019-01-21T12:15:06.930Z,-0.81
2019-01-21T12:16:06.933Z,-0.81
2019-01-21T12:17:06.926Z,-0.81
2019-01-21T12:18:06.940Z,-0.75
2019-01-21T12:19:05.064Z,-0.75
2019-01-21T12:20:06.729Z,-0.75
2019-01-21T12:21:06.931Z,-0.69
2019-01-21T12:22:06.926Z,-0.69
2019-01-21T12:23:06.933Z,-0.69
2019-01-21T12:24:06.942Z,-0.69
2019-01-21T12:25:06.755Z,-0.62
2019-01-21T12:26:05.154Z,-0.62
2019-01-21T12:27:06.925Z,-0.62
2019-01-21T12:28:06.939Z,-0.56
2019-01-21T12:29:06.965Z,-0.56
2019-01-21T12:30:06.890Z,-0.56
2019-01-21T12:31:06.950Z,-0.56
2019-01-21T12:33:05.119Z,-0.50
2019-01-21T12:33:11.464Z,-0.50
2019-01-21T12:34:06.908Z,-0.50
2019-01-21T12:35:05.160Z,-0.50
2019-01-21T12:36:06.961Z,-0.44
2019-01-21T12:37:06.954Z,-0.44
2019-01-21T12:38:05.131Z,-0.44
2019-01-21T12:39:06.971Z,-0.38
2019-01-21T12:40:06.939Z,-0.38
2019-01-21T12:41:06.959Z,-0.38
2019-01-21T12:42:07.002Z,-0.38
2019-01-21T12:43:06.969Z,-0.38
2019-01-21T12:44:06.718Z,-0.38
2019-01-21T12:45:05.060Z,-0.31
2019-01-21T12:46:05.120Z,-0.31
2019-01-21T12:47:06.996Z,-0.31
2019-01-21T12:48:06.971Z,-0.31
2019-01-21T12:49:05.065Z,-0.31
2019-01-21T12:51:06.817Z,-0.25
2019-01-21T12:51:11.786Z,-0.31
2019-01-21T12:52:06.963Z,-0.25
2019-01-21T12:53:05.047Z,-0.25
2019-01-21T12:54:06.950Z,-0.25
2019-01-21T12:55:06.778Z,-0.25
2019-01-21T12:56:06.767Z,-0.25
2019-01-21T12:57:06.982Z,-0.25
2019-01-21T12:58:06.803Z,-0.25
2019-01-21T12:59:06.970Z,-0.25
2019-01-21T13:00:06.940Z,-0.25
2019-01-21T13:01:06.957Z,-0.25
2019-01-21T13:02:06.956Z,-0.25
2019-01-21T13:03:05.066Z,-0.25
2019-01-21T13:04:06.725Z,-0.25
2019-01-21T13:05:06.955Z,-0.25
2019-01-21T13:06:06.945Z,-0.25
2019-01-21T13:07:06.951Z,-0.25
2019-01-21T13:08:06.700Z,-0.31
2019-01-21T13:09:06.995Z,-0.31
2019-01-21T13:10:06.995Z,-0.31
2019-01-21T13:11:06.965Z,-0.31
2019-01-21T13:13:06.959Z,-0.31
2019-01-21T13:14:06.989Z,-0.31
2019-01-21T13:15:06.794Z,-0.31
2019-01-21T13:16:06.992Z,-0.31
2019-01-21T13:17:06.981Z,-0.31
2019-01-21T13:18:06.974Z,-0.31
2019-01-21T13:19:06.745Z,-0.31
2019-01-21T13:20:07.060Z,-0.31
2019-01-21T13:21:06.987Z,-0.31
2019-01-21T13:22:06.821Z,-0.31
2019-01-21T13:23:06.975Z,-0.31
2019-01-21T13:24:06.978Z,-0.31
2019-01-21T13:25:06.972Z,-0.31